Latest Weather Observations for Cape Naturaliste

IDW60801

Issued at 6:04 am WST Thursday 19 October 2017 (issued every 30 minutes, with the page automatically refreshed every 10 minutes)

About weather observations | Map of weather stations | Latest weather observations for WA | Other Formats
Station Details ID: 009519 Name: CAPE NATURALISTE Lat: -33.54 Lon: 115.02 Height: 109.0 m
Data from the previous 72 hours. | See also: Recent months at Cape Naturaliste
Date/Time
WST
Temp
°C
App
Temp
°C
Dew
Point
°C
Rel
Hum
%
Delta-T
°C
Wind Press
QNH
hPa
Press
MSL
hPa
Rain since
9am
mm
Dir  Spd
km/h
Gust
km/h
Spd
kts
Gust
kts
19/06:00am 8.2 4.8 4.0 75 1.8 SE 11 15 6 8 1027.4 1027.4 0.0
19/05:30am 8.0 4.1 3.5 73 1.9 SE 13 15 7 8 1026.8 1026.8 0.0
19/05:00am 8.7 5.3 3.9 72 2.1 SE 11 13 6 7 1026.5 1026.5 0.0
19/04:30am 8.7 5.3 3.9 72 2.1 SE 11 11 6 6 1026.2 1026.1 0.0
19/04:00am 8.4 4.6 3.7 72 2.0 SE 13 13 7 7 1025.9 1025.8 0.0
19/03:30am 8.4 5.3 3.5 71 2.1 SE 9 11 5 6 1025.7 1025.6 0.0
19/03:00am 8.9 4.3 3.9 71 2.2 SSE 17 20 9 11 1025.7 1025.6 0.0
19/02:30am 9.2 5.0 4.0 70 2.3 SSE 15 20 8 11 1025.7 1025.6 0.0
19/02:00am 9.3 5.1 3.9 69 2.4 SE 15 17 8 9 1025.9 1025.8 0.0
19/01:30am 9.7 5.6 4.1 68 2.5 SSE 15 17 8 9 1025.9 1025.8 0.0
19/01:00am 9.5 5.3 3.9 68 2.5 SE 15 17 8 9 1026.0 1025.9 0.0
19/12:30am 9.7 5.6 4.1 68 2.5 SSE 15 17 8 9 1026.0 1025.9 0.0
19/12:00am 10.0 5.9 4.4 68 2.5 SSE 15 19 8 10 1026.0 1025.9 0.0
 
Date/Time
WST
Temp
°C
App
Temp
°C
Dew
Point
°C
Rel
Hum
%
Delta-T
°C
Wind Press
QNH
hPa
Press
MSL
hPa
Rain since
9am
mm
Dir  Spd
km/h
Gust
km/h
Spd
kts
Gust
kts
18/11:30pm 10.0 5.5 4.2 67 2.6 SSE 17 19 9 10 1025.8 1025.7 0.0
18/11:00pm 10.0 5.2 4.4 68 2.5 SSE 19 22 10 12 1025.6 1025.5 0.0
18/10:30pm 9.7 4.6 4.1 68 2.5 S 20 24 11 13 1025.2 1025.1 0.0
18/10:00pm 9.7 4.8 3.9 67 2.5 S 19 22 10 12 1025.3 1025.2 0.0
18/09:30pm 10.3 5.2 4.0 65 2.8 S 20 24 11 13 1025.2 1025.1 0.0
18/09:00pm 10.0 5.1 4.0 66 2.6 S 19 20 10 11 1025.2 1025.1 0.0
18/08:30pm 10.4 5.9 4.1 65 2.8 S 17 20 9 11 1025.1 1025.0 0.0
18/08:00pm 11.1 6.7 4.6 64 2.9 S 17 20 9 11 1024.7 1024.6 0.0
18/07:30pm 11.8 7.0 4.5 61 3.3 SSW 19 26 10 14 1024.4 1024.3 0.0
18/07:00pm 11.7 6.9 4.7 62 3.2 SSW 19 28 10 15 1024.0 1023.9 0.0
18/06:30pm 12.2 7.3 4.9 61 3.4 SSW 20 26 11 14 1023.6 1023.5 0.0
18/06:00pm 12.9 7.6 4.8 58 3.7 SSW 22 32 12 17 1023.1 1023.0 0.0
18/05:30pm 14.0 8.9 6.1 59 3.8 SW 22 30 12 16 1022.8 1022.7 0.0
18/05:00pm 14.8 8.9 5.9 55 4.3 SSW 26 35 14 19 1022.3 1022.2 0.0
18/04:30pm 15.0 9.5 5.8 54 4.4 SSW 24 33 13 18 1022.1 1022.0 0.0
18/04:00pm 15.2 10.1 6.0 54 4.4 SW 22 35 12 19 1021.7 1021.6 0.0
18/03:30pm 16.3 10.6 6.7 53 4.7 SW 26 35 14 19 1021.4 1021.3 0.0
18/03:00pm 15.4 10.0 6.2 54 4.5 SW 24 32 13 17 1021.1 1021.0 0.0
18/02:30pm 15.6 10.3 6.6 55 4.4 SW 24 39 13 21 1020.9 1020.8 0.0
18/02:00pm 17.1 11.2 7.7 54 4.7 SW 28 35 15 19 1020.8 1020.7 0.0
18/01:30pm 17.3 11.4 7.4 52 5.0 SW 28 37 15 20 1020.6 1020.5 0.0
18/01:00pm 17.0 11.6 7.9 55 4.6 SW 26 35 14 19 1020.6 1020.5 0.0
18/12:30pm 16.8 10.8 7.2 53 4.8 SW 28 37 15 20 1020.4 1020.3 0.0
18/12:00pm 13.3 7.6 8.2 71 2.5 SW 28 41 15 22 1020.5 1020.4 0.0
18/11:30am 14.8 8.7 6.6 58 4.0 SW 28 35 15 19 1020.3 1020.2 0.0
18/11:00am 16.3 10.1 6.2 51 4.9 SW 28 41 15 22 1020.1 1020.0 0.0
18/10:30am 15.7 8.9 6.7 55 4.4 SW 32 41 17 22 1020.0 1019.9 0.0
18/10:00am 13.4 6.3 6.3 62 3.4 SW 33 44 18 24 1019.6 1019.5 0.0
18/09:30am 15.2 8.6 6.0 54 4.4 SW 30 44 16 24 1019.3 1019.2 0.0
18/09:00am 13.6 5.8 6.5 62 3.4 WSW 37 46 20 25 1019.0 1018.9 4.2
18/08:33am 14.4 8.1 7.2 62 3.5 SW 30 48 16 26 1018.5 1018.4 4.2
18/08:30am 13.3 6.9 7.1 66 3.0 SW 30 41 16 22 1018.5 1018.4 4.2
18/08:00am 12.5 4.7 6.5 67 2.9 WSW 37 50 20 27 1017.8 1017.7 4.2
18/07:30am 13.5 6.0 6.1 61 3.5 WSW 35 44 19 24 1017.3 1017.2 4.2
18/07:00am 13.1 5.9 5.8 61 3.5 WSW 33 44 18 24 1016.8 1016.7 4.2
18/06:30am 11.7 4.6 6.4 70 2.5 WSW 33 46 18 25 1016.3 1016.2 4.2
18/06:12am 12.5 4.2 6.1 65 3.0 WSW 39 57 21 31 1015.9 1015.8 4.2
18/06:00am 12.4 5.1 5.6 63 3.2 WSW 33 44 18 24 1015.7 1015.6 4.2
18/05:30am 12.1 4.1 5.7 65 3.0 WSW 37 48 20 26 1015.3 1015.2 4.2
18/05:00am 12.0 2.9 4.0 58 3.6 WSW 41 54 22 29 1014.7 1014.6 4.2
18/04:30am 12.2 4.1 5.1 62 3.3 WSW 37 50 20 27 1014.2 1014.1 4.2
18/04:00am 12.0 3.4 4.5 60 3.4 WSW 39 52 21 28 1014.0 1013.9 4.2
18/03:30am 12.2 3.6 4.9 61 3.4 WSW 39 52 21 28 1013.6 1013.5 4.2
18/03:00am 12.0 3.0 4.5 60 3.4 WSW 41 50 22 27 1013.1 1013.0 4.2
18/02:30am 11.9 2.8 4.2 59 3.5 WSW 41 54 22 29 1012.7 1012.6 4.2
18/02:00am 12.0 3.4 4.5 60 3.4 WSW 39 54 21 29 1012.5 1012.4 4.2
18/01:30am 12.0 3.9 5.4 64 3.1 WSW 37 50 20 27 1012.4 1012.3 4.2
18/01:14am 11.6 3.2 5.5 66 2.8 SW 39 57 21 31 1012.3 1012.2 4.2
18/01:00am 12.5 4.1 5.4 62 3.3 WSW 39 54 21 29 1012.2 1012.1 4.2
18/12:30am 12.3 4.1 6.4 67 2.8 W 39 52 21 28 1012.2 1012.1 4.2
18/12:00am 12.5 3.1 4.7 59 3.6 W 43 56 23 30 1011.9 1011.8 4.2
 
Date/Time
WST
Temp
°C
App
Temp
°C
Dew
Point
°C
Rel
Hum
%
Delta-T
°C
Wind Press
QNH
hPa
Press
MSL
hPa
Rain since
9am
mm
Dir  Spd
km/h
Gust
km/h
Spd
kts
Gust
kts
17/11:30pm 12.2 4.6 6.0 66 2.9 WSW 35 50 19 27 1011.8 1011.7 4.2
17/11:05pm 12.4 3.4 6.2 66 2.9 WSW 43 63 23 34 1011.4 1011.3 4.2
17/11:00pm 12.4 3.6 5.6 63 3.2 WSW 41 56 22 30 1011.4 1011.3 4.2
17/10:30pm 12.2 3.0 5.4 63 3.2 WSW 43 54 23 29 1011.2 1011.1 4.2
17/10:00pm 12.2 4.0 6.5 68 2.7 WSW 39 56 21 30 1010.8 1010.6 4.2
17/09:30pm 12.0 2.9 6.1 67 2.8 WSW 43 54 23 29 1010.7 1010.5 4.2
17/09:00pm 11.9 2.7 6.4 69 2.6 WSW 44 59 24 32 1010.3 1010.1 4.2
17/08:34pm 11.8 2.4 7.1 73 2.3 WSW 46 65 25 35 1009.7 1009.5 4.2
17/08:30pm 11.7 2.4 7.4 75 2.1 WSW 46 59 25 32 1009.7 1009.5 4.2
17/08:00pm 11.6 3.0 8.8 83 1.4 WSW 44 61 24 33 1009.0 1008.9 4.2
17/07:30pm 11.6 2.5 9.7 88 1.0 WSW 48 63 26 34 1008.4 1008.3 4.2
17/07:00pm 12.0 1.8 10.2 89 0.9 WSW 54 72 29 39 1007.6 1007.5 4.0
17/06:40pm 12.8 4.4 11.0 89 0.9 W 46 65 25 35 1007.0 1006.9 3.6
17/06:30pm 12.7 4.2 10.8 88 1.0 W 46 63 25 34 1007.0 1006.9 3.6
17/06:00pm 13.0 3.7 10.7 86 1.2 W 50 76 27 41 1006.5 1006.4 2.8
17/05:39pm 14.1 5.9 11.8 86 1.2 WNW 46 65 25 35 1006.2 1006.1 2.6
17/05:30pm 14.3 5.9 12.2 87 1.1 WNW 48 63 26 34 1006.2 1006.1 2.6
17/05:00pm 14.4 7.0 12.6 89 1.0 WNW 43 54 23 29 1006.1 1006.0 2.6
17/04:39pm 14.4 7.0 12.3 87 1.1 WNW 43 61 23 33 1005.8 1005.7 1.6
17/04:30pm 14.8 7.5 12.8 88 1.1 WNW 43 56 23 30 1005.8 1005.7 1.6
17/04:00pm 15.1 7.3 11.7 80 1.8 WNW 44 65 24 35 1005.7 1005.6 1.0
17/03:35pm 15.3 7.6 12.1 81 1.7 NW 44 63 24 34 1005.6 1005.5 0.8
17/03:30pm 16.0 8.8 11.8 76 2.3 NW 41 57 22 31 1005.7 1005.6 0.6
17/03:00pm 16.0 8.3 12.0 77 2.2 NW 44 59 24 32 1005.9 1005.8 0.6
17/02:32pm 16.8 10.2 11.3 70 3.0 NW 37 63 20 34 1006.0 1005.9 0.4
17/02:30pm 17.4 10.7 11.0 66 3.5 NW 37 54 20 29 1006.0 1005.9 0.4
17/02:04pm 18.3 10.6 11.6 65 3.7 NW 43 61 23 33 1006.1 1006.0 0.4
17/02:00pm 18.6 10.8 11.9 65 3.7 NW 44 61 24 33 1006.1 1006.0 0.4
17/01:30pm 17.9 10.0 10.8 63 3.8 NW 43 57 23 31 1006.5 1006.4 0.4
17/01:00pm 18.4 11.4 11.2 63 3.9 NW 39 52 21 28 1006.7 1006.6 0.4
17/12:30pm 17.8 9.8 10.4 62 4.0 NW 43 54 23 29 1007.0 1006.9 0.4
17/12:00pm 18.1 11.2 11.7 66 3.5 NW 39 54 21 29 1007.1 1007.0 0.4
17/11:55am 17.0 10.8 11.3 69 3.1 NW 35 54 19 29 1007.1 1007.0 0.4
17/11:30am 17.7 10.2 10.8 64 3.7 NW 41 50 22 27 1007.3 1007.2 0.4
17/11:00am 17.0 9.6 11.3 69 3.1 WNW 41 52 22 28 1007.5 1007.4 0.4
17/10:45am 16.7 12.4 13.2 80 2.0 NW 28 46 15 25 1007.5 1007.4 0.4
17/10:30am 13.8 8.2 11.5 86 1.2 WNW 32 46 17 25 1007.6 1007.5 0.4
17/10:00am 13.8 6.5 11.5 86 1.2 WNW 41 59 22 32 1007.7 1007.6 0.2
17/09:55am 14.4 8.4 12.1 86 1.3 WNW 35 57 19 31 1007.6 1007.5 0.2
17/09:30am 15.1 8.5 10.1 72 2.6 WNW 35 50 19 27 1007.5 1007.4 0.0
17/09:18am 15.1 8.7 9.2 68 3.0 WNW 33 52 18 28 1007.3 1007.2 0.0
17/09:00am 16.5 9.6 8.7 60 4.0 NW 35 44 19 24 1007.3 1007.2 5.2
17/08:30am 15.1 8.6 8.1 63 3.5 WNW 32 44 17 24 1007.2 1007.1 5.2
17/08:00am 14.4 7.2 7.5 63 3.4 WNW 35 48 19 26 1007.0 1006.9 5.2
17/07:30am 14.2 7.0 7.7 65 3.2 W 35 46 19 25 1006.8 1006.7 5.2
17/07:00am 13.5 5.8 7.3 66 3.1 W 37 50 20 27 1006.6 1006.5 5.2
17/06:30am 12.8 5.2 7.5 70 2.6 W 37 50 20 27 1006.4 1006.3 5.2
17/06:00am 12.8 4.5 7.9 72 2.4 W 41 59 22 32 1006.0 1005.9 5.2
17/05:59am 12.8 4.5 7.9 72 2.4 W 41 59 22 32 1006.0 1005.9 5.2
17/05:30am 12.6 5.6 10.0 84 1.3 W 37 48 20 26 1005.6 1005.5 5.2
17/05:00am 12.5 5.3 10.4 87 1.1 WSW 39 48 21 26 1005.3 1005.2 5.2
17/04:30am 12.4 5.2 10.5 88 1.0 WSW 39 50 21 27 1005.1 1005.0 5.2
17/04:00am 12.2 4.2 10.3 88 1.0 W 43 59 23 32 1004.8 1004.7 5.2
17/03:52am 12.2 4.5 10.3 88 1.0 W 41 59 22 32 1004.8 1004.7 5.0
17/03:30am 12.4 4.2 10.5 88 1.0 W 44 56 24 30 1004.6 1004.5 5.0
17/03:00am 13.0 5.8 10.7 86 1.2 WSW 39 48 21 26 1004.4 1004.3 4.6
17/02:30am 13.1 5.6 10.8 86 1.2 W 41 50 22 27 1004.4 1004.3 4.6
17/02:00am 12.4 5.1 10.1 86 1.2 W 39 52 21 28 1004.3 1004.2 4.6
17/01:38am 13.7 7.2 10.5 81 1.7 W 35 57 19 31 1004.4 1004.3 3.8
17/01:30am 13.4 6.4 10.0 80 1.8 W 37 48 20 26 1004.4 1004.3 3.8
17/01:00am 13.1 5.1 10.3 83 1.5 W 43 57 23 31 1004.1 1004.0 3.8
17/12:51am 13.1 5.9 10.6 85 1.3 WSW 39 57 21 31 1004.0 1003.9 3.8
17/12:30am 13.2 5.1 10.6 84 1.4 WSW 44 57 24 31 1004.1 1004.0 3.8
17/12:00am 12.9 5.8 10.8 87 1.1 WSW 39 54 21 29 1003.3 1003.2 3.8
 
Date/Time
WST
Temp
°C
App
Temp
°C
Dew
Point
°C
Rel
Hum
%
Delta-T
°C
Wind Press
QNH
hPa
Press
MSL
hPa
Rain since
9am
mm
Dir  Spd
km/h
Gust
km/h
Spd
kts
Gust
kts
16/11:45pm 12.9 4.5 11.0 88 1.0 WSW 46 65 25 35 1003.1 1002.9 3.8
16/11:30pm 13.1 4.7 11.0 87 1.1 W 46 63 25 34 1002.6 1002.4 3.8
16/11:00pm 13.9 4.1 10.1 78 2.0 W 52 74 28 40 1002.3 1002.1 2.8
16/10:32pm 14.1 4.6 9.9 76 2.2 W 50 69 27 37 1001.7 1001.5 2.8
16/10:30pm 14.5 5.1 10.3 76 2.2 W 50 63 27 34 1001.7 1001.5 2.8
16/10:23pm 14.3 4.8 9.9 75 2.3 W 50 69 27 37 1001.6 1001.4 2.8
16/10:00pm 14.0 4.5 9.8 76 2.2 W 50 63 27 34 1001.3 1001.1 2.8
16/09:30pm 13.5 4.8 10.1 80 1.8 W 46 65 25 35 1001.2 1001.0 2.8
16/09:00pm 14.0 3.7 9.8 76 2.2 W 54 72 29 39 1000.7 1000.5 2.8
16/08:30pm 14.3 3.9 10.5 78 2.0 W 56 69 30 37 999.9 999.7 2.8
16/08:15pm 14.4 4.1 11.0 80 1.8 W 56 78 30 42 999.1 999.0 2.8
16/08:00pm 14.4 4.3 11.6 83 1.5 WNW 56 72 30 39 998.5 998.4 2.8
16/07:30pm 15.1 5.1 11.9 81 1.7 WNW 56 76 30 41 997.8 997.7 2.8
16/07:00pm 14.8 5.1 11.9 83 1.6 WNW 54 76 29 41 996.9 996.8 2.8
16/06:34pm 14.1 4.5 12.0 87 1.1 NW 54 72 29 39 996.8 996.7 2.8
16/06:30pm 14.2 4.0 12.1 87 1.1 NW 57 74 31 40 996.7 996.6 2.8
16/06:00pm 14.1 3.6 12.3 89 1.0 NW 59 87 32 47 996.5 996.4 2.8
16/05:30pm 13.7 2.6 11.4 86 1.2 NW 61 83 33 45 996.6 996.5 2.6
16/05:00pm 14.8 2.7 10.6 76 2.2 NNW 65 87 35 47 996.3 996.2 2.0
16/04:33pm 14.6 4.5 11.6 82 1.6 NW 56 74 30 40 996.5 996.4 2.0
16/04:30pm 14.5 3.7 11.3 81 1.7 NW 59 76 32 41 996.5 996.4 2.0
16/04:00pm 13.6 3.5 11.8 89 1.0 NW 56 83 30 45 996.9 996.8 2.0
16/03:35pm 12.9 2.4 10.3 84 1.4 NW 56 93 30 50 997.2 997.1 1.0
16/03:30pm 13.7 4.1 10.9 83 1.5 NW 52 69 28 37 997.1 997.0 0.8
16/03:29pm 13.7 4.1 10.9 83 1.5 NW 52 70 28 38 997.2 997.1 0.8
16/03:27pm 13.8 4.3 11.1 84 1.4 NW 52 72 28 39 997.2 997.1 0.8
16/03:17pm 12.7 1.7 8.4 75 2.1 NW 56 83 30 45 997.1 997.0 0.8
16/03:16pm 13.4 3.0 9.1 75 2.2 NW 54 83 29 45 997.2 997.1 0.6
16/03:00pm 14.0 4.9 9.8 76 2.2 NW 48 72 26 39 997.6 997.5 0.4
16/02:30pm 14.8 4.7 9.0 68 3.0 NW 52 80 28 43 997.7 997.6 0.2
16/02:00pm 17.7 8.8 9.1 57 4.5 NW 46 65 25 35 997.7 997.6 0.2
16/01:40pm 17.8 9.7 10.2 61 4.1 WNW 43 61 23 33 998.0 997.9 0.2
16/01:30pm 17.3 8.0 9.2 59 4.2 NW 48 61 26 33 998.0 997.9 0.2
16/01:07pm 17.7 8.3 10.1 61 4.1 NW 50 69 27 37 998.2 998.1 0.2
16/01:00pm 17.2 7.3 9.6 61 4.0 NW 52 69 28 37 998.2 998.1 0.2
16/12:30pm 15.6 5.6 10.6 72 2.7 WNW 54 72 29 39 998.1 998.0 0.2
16/12:00pm 17.1 6.8 9.5 61 4.0 NW 54 80 29 43 997.8 997.7 0.2
16/11:30am 16.0 6.3 9.0 63 3.6 NW 50 76 27 41 997.7 997.6 0.2
16/11:06am 15.6 5.8 8.6 63 3.6 NW 50 70 27 38 997.7 997.6 0.2
16/11:00am 16.3 7.1 11.0 71 2.9 NW 50 67 27 36 997.7 997.6 0.2
16/10:30am 15.3 5.4 9.7 69 2.9 NW 52 70 28 38 997.8 997.7 0.2
16/10:22am 15.9 7.8 10.9 72 2.7 NW 44 65 24 35 997.8 997.7 0.2
16/10:00am 13.6 4.4 10.8 83 1.5 WNW 50 65 27 35 997.9 997.8 0.2
16/09:37am 15.3 7.3 10.3 72 2.6 NW 43 69 23 37 997.5 997.4 0.2
16/09:30am 16.0 8.3 12.0 77 2.2 NW 44 57 24 31 997.5 997.4 0.2
16/09:00am 14.0 5.5 11.9 87 1.1 WNW 48 70 26 38 997.3 997.2 6.8
16/08:42am 13.9 6.4 12.1 89 1.0 WNW 43 61 23 33 997.2 997.1 6.8
16/08:30am 14.3 7.8 12.9 91 0.8 NW 39 56 21 30 997.1 997.0 6.8
16/08:00am 13.3 6.5 11.9 91 0.8 NW 39 57 21 31 997.3 997.2 6.8
16/07:30am 13.6 6.9 12.2 91 0.8 NW 39 54 21 29 997.4 997.3 6.2
16/07:00am 13.3 5.1 11.7 90 0.9 WNW 46 61 25 33 997.3 997.2 5.2
16/06:52am 13.2 4.9 11.4 89 1.0 WNW 46 61 25 33 997.6 997.5 4.8
16/06:32am 13.4 6.1 11.6 89 1.0 W 41 65 22 35 997.4 997.3 4.6
16/06:30am 13.4 6.1 11.5 88 1.0 W 41 61 22 33 997.4 997.3 4.6
16/06:23am 13.6 5.8 11.0 84 1.4 NNW 43 61 23 33 997.3 997.2 4.0
16/06:21am 15.3 8.0 12.8 85 1.4 NNW 43 61 23 33 997.5 997.4 1.8

Other Formats:

Comma delimited format used in spreadsheet applications
http://www.bom.gov.au/fwo/IDW60801/IDW60801.94600.axf

JavaScript Object Notation format (JSON) in row-major order
http://www.bom.gov.au/fwo/IDW60801/IDW60801.94600.json